Time;durP1;ratioP1;P1;durP2;ratioP2;P2;SDS_P1;SDS_P2;PMS_P1;PMS_P2;Temp;Humidity;BMP_temperature;BMP_pressure;BME280_temperature;BME280_humidity;BME280_pressure;Samples;Min_cycle;Max_cycle;Signal;HPM_P1;HPM_P2
2022/02/04 00:05:36;;;;;;;12.98;5.18;;;;;;;;;;5013954;28;20482;-66
2022/02/04 00:08:48;;;;;;;10.93;4.38;;;;;;;;;;5013044;28;20109;-66
2022/02/04 00:24:06;;;;;;;16.15;6.20;;;;;;;;;;5016572;28;20025;-66
2022/02/04 00:26:42;;;;;;;20.90;7.38;;;;;;;;;;5015211;28;20045;-66
2022/02/04 00:29:19;;;;;;;24.17;7.60;;;;;;;;;;5015248;28;20118;-66
2022/02/04 00:31:53;;;;;;;25.23;8.55;;;;;;;;;;5015124;28;20037;-66
2022/02/04 00:34:22;;;;;;;25.38;8.90;;;;;;;;;;5016942;28;20025;-67
2022/02/04 00:39:26;;;;;;;20.00;6.97;;;;;;;;;;5016342;28;20402;-67
2022/02/04 00:41:53;;;;;;;26.67;9.27;;;;;;;;;;5014962;28;20034;-66
2022/02/04 00:44:26;;;;;;;23.00;8.02;;;;;;;;;;5016202;28;20014;-66
2022/02/04 00:47:02;;;;;;;;;;;;;;;;;;5015307;28;20033;-67
2022/02/04 00:49:43;;;;;;;20.38;6.93;;;;;;;;;;5016689;28;19945;-67
2022/02/04 00:52:20;;;;;;;16.10;6.32;;;;;;;;;;5015583;28;20045;-67
2022/02/04 01:06:30;;;;;;;10.55;4.90;;;;;;;;;;5015786;28;20049;-66
2022/02/04 01:28:01;;;;;;;24.42;9.15;;;;;;;;;;5015244;28;20221;-67
2022/02/04 01:30:32;;;;;;;18.80;6.93;;;;;;;;;;5013936;28;20483;-67
2022/02/04 01:32:58;;;;;;;18.08;6.63;;;;;;;;;;5014074;28;20029;-67
2022/02/04 01:35:24;;;;;;;16.65;6.50;;;;;;;;;;5013985;28;20026;-67
2022/02/04 01:37:50;;;;;;;21.80;7.18;;;;;;;;;;5013942;28;20041;-67
2022/02/04 01:40:16;;;;;;;21.92;7.10;;;;;;;;;;5015360;28;20422;-67
2022/02/04 01:42:42;;;;;;;14.02;5.38;;;;;;;;;;5013781;28;20072;-66
2022/02/04 01:45:09;;;;;;;16.75;5.70;;;;;;;;;;5015581;28;20034;-66
2022/02/04 01:47:35;;;;;;;13.82;5.65;;;;;;;;;;5014997;28;20017;-66
2022/02/04 01:50:01;;;;;;;17.90;5.95;;;;;;;;;;5013658;28;20038;-66
2022/02/04 01:52:27;;;;;;;18.10;6.45;;;;;;;;;;5014941;28;20109;-66
2022/02/04 01:54:53;;;;;;;19.42;6.65;;;;;;;;;;5015373;28;20030;-67
2022/02/04 01:57:20;;;;;;;17.85;7.03;;;;;;;;;;5013612;28;20030;-67
2022/02/04 01:59:46;;;;;;;20.17;7.60;;;;;;;;;;5014765;28;20030;-67
2022/02/04 02:02:14;;;;;;;13.65;6.65;;;;;;;;;;5013290;28;20549;-66
2022/02/04 02:04:40;;;;;;;16.13;6.50;;;;;;;;;;5014684;28;20026;-66
2022/02/04 02:07:13;;;;;;;20.55;7.45;;;;;;;;;;5015177;28;20482;-66
2022/02/04 02:09:57;;;;;;;;;;;;;;;;;;5015285;28;20030;-66
2022/02/04 02:12:27;;;;;;;11.15;5.10;;;;;;;;;;5013336;28;19952;-67
2022/02/04 02:15:21;;;;;;;14.85;6.57;;;;;;;;;;5013276;28;20041;-66
2022/02/04 02:40:22;;;;;;;14.52;5.88;;;;;;;;;;5013387;28;20511;-66
2022/02/04 02:47:45;;;;;;;17.77;6.40;;;;;;;;;;5013999;28;20034;-67
2022/02/04 02:55:28;;;;;;;11.55;5.38;;;;;;;;;;5014202;28;20030;-67
2022/02/04 03:00:50;;;;;;;12.38;4.65;;;;;;;;;;5014181;28;20490;-67
2022/02/04 03:03:18;;;;;;;15.10;5.55;;;;;;;;;;5012447;28;20132;-67
2022/02/04 03:05:45;;;;;;;13.40;4.90;;;;;;;;;;5012491;28;20084;-67
2022/02/04 03:08:11;;;;;;;17.70;5.88;;;;;;;;;;5013705;28;20037;-67
2022/02/04 03:10:37;;;;;;;17.00;6.38;;;;;;;;;;5013628;28;20038;-67
2022/02/04 03:13:06;;;;;;;14.23;5.95;;;;;;;;;;5012379;28;20459;-67
2022/02/04 03:15:32;;;;;;;16.50;6.13;;;;;;;;;;5013612;28;20060;-67
2022/02/04 03:18:06;;;;;;;17.88;6.25;;;;;;;;;;5014180;28;20451;-67
2022/02/04 03:20:46;;;;;;;14.63;6.32;;;;;;;;;;5012456;28;20111;-66
2022/02/04 03:23:12;;;;;;;18.15;6.18;;;;;;;;;;5012312;28;20026;-66
2022/02/04 03:25:43;;;;;;;16.67;5.65;;;;;;;;;;5014108;28;20029;-66
2022/02/04 03:28:15;;;;;;;15.30;6.00;;;;;;;;;;5012329;28;20501;-67
2022/02/04 03:30:42;;;;;;;12.65;4.90;;;;;;;;;;5012241;28;20125;-67
2022/02/04 03:33:10;;;;;;;8.85;4.53;;;;;;;;;;5012230;28;20022;-67
2022/02/04 03:35:36;;;;;;;13.63;4.78;;;;;;;;;;5013462;28;20061;-66
2022/02/04 03:38:02;;;;;;;11.00;4.75;;;;;;;;;;5013699;28;20018;-67
2022/02/04 03:40:29;;;;;;;12.05;4.18;;;;;;;;;;5012951;28;20036;-67
2022/02/04 03:42:55;;;;;;;12.13;4.68;;;;;;;;;;5012114;28;20398;-67
2022/02/04 03:45:22;;;;;;;10.75;4.47;;;;;;;;;;5013329;28;20530;-67
2022/02/04 03:47:48;;;;;;;9.70;5.20;;;;;;;;;;5012083;28;20486;-67
2022/02/04 03:50:15;;;;;;;15.65;5.68;;;;;;;;;;5015663;28;20037;-67
2022/02/04 03:52:41;;;;;;;13.02;5.20;;;;;;;;;;5017164;28;20042;-67
2022/02/04 03:55:09;;;;;;;11.80;5.10;;;;;;;;;;5015754;28;20438;-67
2022/02/04 03:57:35;;;;;;;15.02;5.43;;;;;;;;;;5017078;28;20030;-67
2022/02/04 04:00:01;;;;;;;13.70;5.13;;;;;;;;;;5017510;28;20041;-67
2022/02/04 04:02:27;;;;;;;11.15;5.18;;;;;;;;;;5015574;28;20049;-67
2022/02/04 04:04:54;;;;;;;13.10;4.78;;;;;;;;;;5016882;28;20036;-67
2022/02/04 04:07:20;;;;;;;15.82;5.43;;;;;;;;;;5015654;28;20030;-67
2022/02/04 04:09:59;;;;;;;13.73;4.53;;;;;;;;;;5015540;28;20163;-67
2022/02/04 04:12:25;;;;;;;9.38;4.57;;;;;;;;;;5015586;28;20434;-67
2022/02/04 04:14:54;;;;;;;12.60;4.70;;;;;;;;;;5016794;28;20018;-67
2022/02/04 04:17:21;;;;;;;11.98;5.68;;;;;;;;;;5015392;28;20034;-67
2022/02/04 04:19:47;;;;;;;14.38;6.03;;;;;;;;;;5015432;28;20068;-67
2022/02/04 04:22:13;;;;;;;14.68;5.95;;;;;;;;;;5016597;28;20371;-67
2022/02/04 04:24:39;;;;;;;11.32;5.28;;;;;;;;;;5017141;28;20530;-66
2022/02/04 04:27:06;;;;;;;14.77;6.55;;;;;;;;;;5015230;28;20037;-67
2022/02/04 04:29:32;;;;;;;16.85;6.55;;;;;;;;;;5015186;28;20387;-66
2022/02/04 04:31:58;;;;;;;15.45;6.55;;;;;;;;;;5016613;28;20026;-66
2022/02/04 04:34:24;;;;;;;14.95;6.80;;;;;;;;;;5015070;28;20026;-66
2022/02/04 04:36:51;;;;;;;12.82;6.13;;;;;;;;;;5015098;28;20033;-66
2022/02/04 04:39:23;;;;;;;11.80;6.18;;;;;;;;;;5016239;28;20387;-66
2022/02/04 05:25:44;;;;;;;15.27;5.97;;;;;;;;;;5016215;28;20026;-67
2022/02/04 05:31:05;;;;;;;11.63;4.35;;;;;;;;;;5004173;28;20041;-66
2022/02/04 05:33:31;;;;;;;11.48;4.80;;;;;;;;;;5015264;28;20033;-66
2022/02/04 05:35:59;;;;;;;11.05;4.60;;;;;;;;;;5013946;28;20025;-66
2022/02/04 05:38:27;;;;;;;11.88;3.95;;;;;;;;;;5015675;28;20029;-66
2022/02/04 05:40:53;;;;;;;15.10;5.07;;;;;;;;;;5013879;28;20026;-66
2022/02/04 05:43:24;;;;;;;11.23;4.68;;;;;;;;;;5015264;28;20421;-66
2022/02/04 05:46:14;;;;;;;12.93;5.10;;;;;;;;;;5014989;28;20033;-65
2022/02/04 05:48:44;;;;;;;8.90;3.88;;;;;;;;;;5015117;28;20371;-66
2022/02/04 05:53:54;;;;;;;14.77;5.25;;;;;;;;;;5014859;28;20028;-66
2022/02/04 05:56:37;;;;;;;13.60;5.70;;;;;;;;;;5013660;28;20510;-66
2022/02/04 06:02:01;;;;;;;12.13;4.78;;;;;;;;;;5014724;28;20030;-67
2022/02/04 06:05:15;;;;;;;13.10;4.32;;;;;;;;;;5014323;28;20046;-66
2022/02/04 06:07:15;;;;;;;12.38;4.68;;;;;;;;;;5010593;28;20038;-66
2022/02/04 06:22:57;;;;;;;23.80;6.13;;;;;;;;;;5014398;28;20030;-67
2022/02/04 06:25:23;;;;;;;14.65;5.70;;;;;;;;;;5013075;28;20069;-67
2022/02/04 06:27:49;;;;;;;13.18;5.32;;;;;;;;;;5014332;28;20037;-67
2022/02/04 06:30:16;;;;;;;10.82;5.30;;;;;;;;;;5014191;28;20129;-66
2022/02/04 06:32:42;;;;;;;10.02;4.75;;;;;;;;;;5014245;28;20101;-66
2022/02/04 06:35:10;;;;;;;14.80;4.85;;;;;;;;;;5012937;28;20025;-66
2022/02/04 06:37:36;;;;;;;14.77;5.30;;;;;;;;;;5012938;28;20065;-66
2022/02/04 06:40:06;;;;;;;15.85;5.43;;;;;;;;;;5012869;28;20049;-67
2022/02/04 06:42:32;;;;;;;12.50;5.63;;;;;;;;;;5014056;28;20022;-66
2022/02/04 06:44:59;;;;;;;13.77;5.57;;;;;;;;;;5012794;28;20037;-66
2022/02/04 06:47:25;;;;;;;16.42;6.80;;;;;;;;;;5013977;28;20072;-66
2022/02/04 06:49:52;;;;;;;15.73;7.53;;;;;;;;;;5012630;28;20053;-66
2022/02/04 06:52:18;;;;;;;15.05;6.63;;;;;;;;;;5012688;28;20029;-66
2022/02/04 06:54:44;;;;;;;17.92;6.75;;;;;;;;;;5013798;28;20025;-66
2022/02/04 06:57:11;;;;;;;14.82;6.90;;;;;;;;;;5012608;28;20033;-66
2022/02/04 06:59:39;;;;;;;17.67;7.63;;;;;;;;;;5012594;28;20026;-67
2022/02/04 07:02:05;;;;;;;18.85;6.78;;;;;;;;;;5012360;28;20455;-67
2022/02/04 07:04:34;;;;;;;14.30;6.32;;;;;;;;;;5012500;28;20029;-65
2022/02/04 07:07:01;;;;;;;15.02;7.25;;;;;;;;;;5012439;28;20029;-66
2022/02/04 07:09:46;;;;;;;18.50;7.57;;;;;;;;;;5012478;28;20485;-66
2022/02/04 07:20:21;;;;;;;18.70;6.50;;;;;;;;;;5013597;28;20398;-65
2022/02/04 07:22:47;;;;;;;14.57;6.85;;;;;;;;;;5012327;28;20030;-66
2022/02/04 07:25:14;;;;;;;16.05;5.80;;;;;;;;;;5014833;28;20022;-65
2022/02/04 07:27:41;;;;;;;15.20;6.22;;;;;;;;;;5016404;28;20041;-65
2022/02/04 07:30:08;;;;;;;14.25;6.00;;;;;;;;;;5016279;28;20137;-66
2022/02/04 07:35:18;;;;;;;14.93;5.80;;;;;;;;;;5018363;28;20044;-66
2022/02/04 07:43:13;;;;;;;13.65;5.30;;;;;;;;;;5017499;28;20053;-67
2022/02/04 07:45:40;;;;;;;9.70;5.10;;;;;;;;;;5017253;28;20061;-67
2022/02/04 07:48:07;;;;;;;11.82;5.18;;;;;;;;;;5016072;28;20022;-67
2022/02/04 07:50:33;;;;;;;14.02;5.13;;;;;;;;;;5015848;28;20036;-66
2022/02/04 07:53:00;;;;;;;10.90;4.63;;;;;;;;;;5015961;28;20026;-66
2022/02/04 07:55:26;;;;;;;10.07;4.65;;;;;;;;;;5015867;28;20030;-67
2022/02/04 07:57:55;;;;;;;11.57;5.05;;;;;;;;;;5015792;28;20034;-67
2022/02/04 08:00:22;;;;;;;15.95;4.53;;;;;;;;;;5015784;28;20061;-67
2022/02/04 08:02:48;;;;;;;15.45;4.65;;;;;;;;;;5015442;28;20053;-67
2022/02/04 08:05:19;;;;;;;11.63;5.30;;;;;;;;;;5015682;28;20037;-66
2022/02/04 08:13:21;;;;;;;9.82;4.63;;;;;;;;;;5016855;28;20018;-66
2022/02/04 08:18:58;;;;;;;8.80;4.45;;;;;;;;;;5017489;28;20042;-67
2022/02/04 08:21:44;;;;;;;11.85;4.95;;;;;;;;;;5016553;28;20069;-67
2022/02/04 08:24:39;;;;;;;10.20;4.43;;;;;;;;;;5016453;28;20038;-67
2022/02/04 08:35:07;;;;;;;8.48;4.43;;;;;;;;;;5014892;28;20026;-67
2022/02/04 08:54:13;;;;;;;10.93;3.63;;;;;;;;;;5007641;28;20406;-67
2022/02/04 08:56:49;;;;;;;10.95;3.67;;;;;;;;;;5016552;28;20473;-66
2022/02/04 09:04:48;;;;;;;11.50;4.22;;;;;;;;;;5015916;28;20097;-67
2022/02/04 09:07:18;;;;;;;10.18;3.80;;;;;;;;;;5014559;28;20033;-67
2022/02/04 09:09:51;;;;;;;10.07;3.72;;;;;;;;;;5014528;28;20018;-67
2022/02/04 09:20:40;;;;;;;14.70;4.32;;;;;;;;;;5015594;28;20053;-67
2022/02/04 09:23:08;;;;;;;10.30;4.43;;;;;;;;;;5014134;28;20053;-66
2022/02/04 09:25:34;;;;;;;14.20;5.20;;;;;;;;;;5015705;28;20356;-67
2022/02/04 09:28:00;;;;;;;14.48;5.20;;;;;;;;;;5015385;28;20109;-67
2022/02/04 09:30:26;;;;;;;11.63;4.30;;;;;;;;;;5014029;28;20033;-67
2022/02/04 09:32:53;;;;;;;9.80;4.50;;;;;;;;;;5015355;28;20033;-66
2022/02/04 09:35:22;;;;;;;9.77;4.28;;;;;;;;;;5013998;28;20433;-67
2022/02/04 09:37:48;;;;;;;10.60;4.78;;;;;;;;;;5013961;28;20065;-66
2022/02/04 09:40:15;;;;;;;13.15;4.93;;;;;;;;;;5013952;28;20117;-66
2022/02/04 09:42:43;;;;;;;10.45;4.97;;;;;;;;;;5015105;28;20026;-66
2022/02/04 09:45:10;;;;;;;12.85;4.45;;;;;;;;;;5013831;28;20037;-66
2022/02/04 09:47:38;;;;;;;9.77;4.97;;;;;;;;;;5012890;28;20467;-66
2022/02/04 09:50:08;;;;;;;10.60;4.20;;;;;;;;;;5015229;28;20391;-67
2022/02/04 10:14:15;;;;;;;9.88;4.82;;;;;;;;;;5014610;28;19905;-67
2022/02/04 10:19:26;;;;;;;13.15;5.90;;;;;;;;;;5014478;28;20033;-65
2022/02/04 10:21:59;;;;;;;10.68;4.70;;;;;;;;;;5013204;28;20102;-65
2022/02/04 10:24:29;;;;;;;12.88;5.25;;;;;;;;;;5013474;28;20479;-65
2022/02/04 10:27:18;;;;;;;9.63;4.85;;;;;;;;;;5014401;28;20057;-65
2022/02/04 10:29:51;;;;;;;11.07;5.20;;;;;;;;;;5013082;28;20053;-66
2022/02/04 10:32:17;;;;;;;11.77;5.57;;;;;;;;;;5013076;28;20121;-66
2022/02/04 10:34:50;;;;;;;11.68;5.07;;;;;;;;;;5014265;28;20566;-66
2022/02/04 10:37:28;;;;;;;9.85;4.72;;;;;;;;;;5012958;28;20026;-65
2022/02/04 10:40:09;;;;;;;12.27;4.78;;;;;;;;;;5014700;28;20030;-66
2022/02/04 10:43:02;;;;;;;11.15;5.22;;;;;;;;;;5012820;28;20021;-65
2022/02/04 10:45:52;;;;;;;12.88;4.70;;;;;;;;;;5012793;28;20037;-66
2022/02/04 11:02:08;;;;;;;9.57;5.28;;;;;;;;;;5014443;28;20434;-67
2022/02/04 11:35:14;;;;;;;13.25;5.72;;;;;;;;;;5013506;28;20029;-66
2022/02/04 11:52:57;;;;;;;12.20;5.30;;;;;;;;;;5013316;28;20137;-66
2022/02/04 11:55:14;;;;;;;12.10;5.57;;;;;;;;;;5012045;28;20022;-66
2022/02/04 11:57:55;;;;;;;13.13;5.50;;;;;;;;;;5011998;28;20034;-66
2022/02/04 12:00:24;;;;;;;14.23;5.55;;;;;;;;;;5012032;28;20061;-66
2022/02/04 12:02:51;;;;;;;14.85;5.57;;;;;;;;;;5011561;28;20046;-66
2022/02/04 12:05:17;;;;;;;13.07;5.72;;;;;;;;;;5011971;28;20129;-66
2022/02/04 12:07:44;;;;;;;12.48;5.53;;;;;;;;;;5013154;28;20489;-65
2022/02/04 12:10:13;;;;;;;11.68;5.53;;;;;;;;;;5013791;28;20030;-65
2022/02/04 12:15:30;;;;;;;14.38;6.28;;;;;;;;;;5017127;28;20112;-66
2022/02/04 12:18:00;;;;;;;14.45;6.03;;;;;;;;;;5017262;28;20018;-65
2022/02/04 12:20:45;;;;;;;13.93;5.65;;;;;;;;;;5015465;28;20026;-66
2022/02/04 12:23:29;;;;;;;11.73;6.00;;;;;;;;;;5015360;28;20041;-66
2022/02/04 12:25:55;;;;;;;16.48;6.40;;;;;;;;;;5016631;28;20450;-65
2022/02/04 12:28:36;;;;;;;17.33;6.00;;;;;;;;;;5016533;28;20049;-65
2022/02/04 12:31:23;;;;;;;16.08;6.68;;;;;;;;;;5015181;28;20383;-66
2022/02/04 12:33:50;;;;;;;14.57;5.95;;;;;;;;;;5016991;28;20021;-66
2022/02/04 12:36:17;;;;;;;16.02;6.78;;;;;;;;;;5016441;28;20022;-65
2022/02/04 12:38:44;;;;;;;13.80;6.93;;;;;;;;;;5015106;28;20029;-66
2022/02/04 12:41:18;;;;;;;11.32;6.35;;;;;;;;;;5016354;28;20026;-65
2022/02/04 12:43:47;;;;;;;14.30;6.10;;;;;;;;;;5015049;28;20049;-65
2022/02/04 12:46:13;;;;;;;10.90;5.50;;;;;;;;;;5016251;28;20061;-66
2022/02/04 12:48:40;;;;;;;14.05;5.93;;;;;;;;;;5016132;28;20073;-65
2022/02/04 12:51:06;;;;;;;15.82;6.07;;;;;;;;;;5016017;28;20048;-66
2022/02/04 12:53:43;;;;;;;12.52;5.82;;;;;;;;;;5016063;28;20084;-65
2022/02/04 12:56:22;;;;;;;11.18;5.93;;;;;;;;;;5014856;28;20386;-65
2022/02/04 13:10:02;;;;;;;13.25;6.47;;;;;;;;;;5016011;28;20041;-65
2022/02/04 13:12:29;;;;;;;15.18;6.72;;;;;;;;;;5014511;28;20171;-65
2022/02/04 13:14:55;;;;;;;14.95;6.68;;;;;;;;;;5015682;28;20026;-65
2022/02/04 13:17:36;;;;;;;15.23;6.32;;;;;;;;;;5014363;28;20033;-66
2022/02/04 13:20:04;;;;;;;13.52;6.72;;;;;;;;;;5015091;28;20026;-65
2022/02/04 13:22:30;;;;;;;13.52;6.93;;;;;;;;;;5014317;28;20588;-65
2022/02/04 13:25:06;;;;;;;17.48;7.32;;;;;;;;;;5014257;28;20022;-66
2022/02/04 13:27:32;;;;;;;19.30;8.27;;;;;;;;;;5014172;28;20037;-66
2022/02/04 13:29:58;;;;;;;19.45;8.00;;;;;;;;;;5014201;28;20037;-66
2022/02/04 13:32:25;;;;;;;15.65;7.68;;;;;;;;;;5015336;28;20038;-66
2022/02/04 13:34:52;;;;;;;15.60;6.88;;;;;;;;;;5014001;28;20026;-66
2022/02/04 13:37:25;;;;;;;19.70;7.68;;;;;;;;;;5015263;28;20055;-66
2022/02/04 13:40:00;;;;;;;15.15;7.32;;;;;;;;;;5013977;28;20541;-66
2022/02/04 13:42:38;;;;;;;15.68;7.32;;;;;;;;;;5013960;28;20129;-66
2022/02/04 13:45:25;;;;;;;16.63;7.50;;;;;;;;;;5013874;28;20483;-66
2022/02/04 13:48:06;;;;;;;14.90;7.10;;;;;;;;;;5013804;28;20030;-66
2022/02/04 13:53:40;;;;;;;15.25;6.95;;;;;;;;;;5006732;28;20056;-66
2022/02/04 13:56:19;;;;;;;15.95;7.13;;;;;;;;;;5015513;28;20026;-65
2022/02/04 13:58:56;;;;;;;17.50;7.43;;;;;;;;;;5013616;28;20046;-66
2022/02/04 14:01:33;;;;;;;16.98;8.23;;;;;;;;;;5015374;28;20018;-66
2022/02/04 14:04:02;;;;;;;21.45;9.00;;;;;;;;;;5013334;28;20077;-66
2022/02/04 14:06:30;;;;;;;15.32;7.32;;;;;;;;;;5013439;28;20026;-65
2022/02/04 14:09:05;;;;;;;16.70;8.15;;;;;;;;;;5015188;28;20111;-66
2022/02/04 14:11:49;;;;;;;18.42;8.40;;;;;;;;;;5013355;28;20486;-65
2022/02/04 14:14:18;;;;;;;20.00;9.40;;;;;;;;;;5013409;28;20030;-66
2022/02/04 14:16:51;;;;;;;22.45;9.65;;;;;;;;;;5013326;28;20072;-66
2022/02/04 14:19:17;;;;;;;17.55;9.68;;;;;;;;;;5013341;28;20410;-66
2022/02/04 14:21:43;;;;;;;19.92;9.82;;;;;;;;;;5013236;28;20026;-66
2022/02/04 14:24:11;;;;;;;21.70;10.27;;;;;;;;;;5013139;28;20113;-66
2022/02/04 14:26:43;;;;;;;20.73;11.20;;;;;;;;;;5013137;28;20030;-66
2022/02/04 14:32:01;;;;;;;24.98;11.68;;;;;;;;;;5014363;28;20466;-66
2022/02/04 14:34:53;;;;;;;23.70;11.40;;;;;;;;;;5014444;28;20133;-66
2022/02/04 14:54:01;;;;;;;17.52;9.73;;;;;;;;;;5014874;28;20034;-65
2022/02/04 15:01:57;;;;;;;17.65;8.88;;;;;;;;;;5013489;28;20030;-65
2022/02/04 15:04:47;;;;;;;19.90;8.35;;;;;;;;;;5014388;28;20030;-66
2022/02/04 15:07:14;;;;;;;17.55;7.93;;;;;;;;;;5012542;28;20034;-65
2022/02/04 15:09:52;;;;;;;16.08;7.97;;;;;;;;;;5012501;28;20022;-65
2022/02/04 15:12:18;;;;;;;18.73;9.65;;;;;;;;;;5014233;28;20475;-64
2022/02/04 15:14:44;;;;;;;15.52;8.13;;;;;;;;;;5012415;28;20109;-64
2022/02/04 15:17:10;;;;;;;21.10;8.20;;;;;;;;;;5012367;28;20042;-65
2022/02/04 15:19:36;;;;;;;16.92;8.90;;;;;;;;;;5012434;28;20457;-65
2022/02/04 15:22:07;;;;;;;14.80;7.50;;;;;;;;;;5013582;28;20092;-66
2022/02/04 15:24:33;;;;;;;16.83;7.70;;;;;;;;;;5012339;28;20037;-65
2022/02/04 15:27:00;;;;;;;16.00;8.13;;;;;;;;;;5012287;28;20044;-65
2022/02/04 15:29:26;;;;;;;17.58;8.82;;;;;;;;;;5012273;28;20029;-66
2022/02/04 15:31:58;;;;;;;24.95;8.25;;;;;;;;;;5012139;28;20038;-66
2022/02/04 15:34:25;;;;;;;17.25;8.15;;;;;;;;;;5012209;28;20084;-65
2022/02/04 15:36:51;;;;;;;16.60;8.23;;;;;;;;;;5012174;28;20034;-65
2022/02/04 15:39:19;;;;;;;20.50;8.52;;;;;;;;;;5013433;28;20027;-64
2022/02/04 15:41:46;;;;;;;16.27;8.07;;;;;;;;;;5012131;28;20041;-65
2022/02/04 15:44:34;;;;;;;21.58;9.73;;;;;;;;;;5012201;28;20467;-64
2022/02/04 16:03:02;;;;;;;19.33;9.60;;;;;;;;;;5016952;28;20095;-66
2022/02/04 16:05:31;;;;;;;32.38;10.98;;;;;;;;;;5017045;28;20088;-66
2022/02/04 16:07:58;;;;;;;21.88;10.57;;;;;;;;;;5015673;28;20044;-66
2022/02/04 16:13:23;;;;;;;22.67;11.10;;;;;;;;;;5016890;28;20036;-65
2022/02/04 16:15:57;;;;;;;26.98;11.30;;;;;;;;;;5015556;28;20037;-65
2022/02/04 16:18:28;;;;;;;24.63;11.57;;;;;;;;;;5015543;28;20033;-65
2022/02/04 16:21:12;;;;;;;26.55;11.18;;;;;;;;;;5015468;28;20497;-66
2022/02/04 16:28:55;;;;;;;31.80;12.45;;;;;;;;;;5016656;28;20022;-66
2022/02/04 16:31:22;;;;;;;21.25;10.95;;;;;;;;;;5015161;28;20426;-66
2022/02/04 16:33:48;;;;;;;25.98;12.10;;;;;;;;;;5017055;28;20366;-66
2022/02/04 16:36:17;;;;;;;29.17;14.32;;;;;;;;;;5016901;28;20026;-66
2022/02/04 16:38:51;;;;;;;35.38;14.90;;;;;;;;;;5015136;28;20068;-66
2022/02/04 16:41:20;;;;;;;26.40;12.00;;;;;;;;;;5015183;28;20105;-66
2022/02/04 16:43:46;;;;;;;25.02;11.93;;;;;;;;;;5015067;28;20034;-66
2022/02/04 16:46:13;;;;;;;27.65;11.95;;;;;;;;;;5015023;28;20034;-65
2022/02/04 16:48:40;;;;;;;26.58;11.98;;;;;;;;;;5016213;28;20037;-66
2022/02/04 16:51:06;;;;;;;24.02;11.25;;;;;;;;;;5016631;28;20129;-66
2022/02/04 16:53:36;;;;;;;24.02;11.65;;;;;;;;;;5016141;28;20026;-67
2022/02/04 16:56:03;;;;;;;36.75;14.65;;;;;;;;;;5014483;28;20109;-66
2022/02/04 16:58:29;;;;;;;49.20;19.13;;;;;;;;;;5014748;28;20042;-65
2022/02/04 17:00:55;;;;;;;45.00;18.75;;;;;;;;;;5015981;28;20037;-66
2022/02/04 17:03:22;;;;;;;46.15;18.83;;;;;;;;;;5014460;28;20052;-66
2022/02/04 17:05:52;;;;;;;43.40;16.90;;;;;;;;;;5014602;28;20438;-66
2022/02/04 17:08:36;;;;;;;40.08;16.33;;;;;;;;;;5014661;28;20018;-66
2022/02/04 17:11:07;;;;;;;37.97;14.90;;;;;;;;;;5014446;28;20045;-66
2022/02/04 17:13:34;;;;;;;27.42;12.43;;;;;;;;;;5015335;28;20116;-66
2022/02/04 17:16:00;;;;;;;30.13;12.93;;;;;;;;;;5014376;28;20739;-66
2022/02/04 17:18:27;;;;;;;25.70;11.85;;;;;;;;;;5015684;28;20100;-66
2022/02/04 17:20:53;;;;;;;30.08;11.73;;;;;;;;;;5014338;28;20394;-66
2022/02/04 17:23:32;;;;;;;23.83;12.45;;;;;;;;;;5014345;28;20028;-66
2022/02/04 17:25:59;;;;;;;34.75;15.27;;;;;;;;;;5014239;28;20057;-66
2022/02/04 17:28:30;;;;;;;45.67;17.13;;;;;;;;;;5014226;28;20386;-66
2022/02/04 17:30:57;;;;;;;34.17;16.02;;;;;;;;;;5015413;28;20497;-66
2022/02/04 17:33:24;;;;;;;33.55;14.70;;;;;;;;;;5014076;28;20037;-66
2022/02/04 17:35:51;;;;;;;34.42;15.00;;;;;;;;;;5014087;28;20033;-65
2022/02/04 17:38:17;;;;;;;26.90;13.55;;;;;;;;;;5015270;28;20080;-66
2022/02/04 17:40:44;;;;;;;41.72;13.93;;;;;;;;;;5013980;28;20033;-65
2022/02/04 17:43:11;;;;;;;30.35;13.10;;;;;;;;;;5015385;28;20025;-66
2022/02/04 17:45:37;;;;;;;33.15;13.77;;;;;;;;;;5013881;28;20050;-66
2022/02/04 17:48:21;;;;;;;33.38;14.80;;;;;;;;;;5013829;28;20487;-65
2022/02/04 17:50:57;;;;;;;31.35;14.55;;;;;;;;;;5013803;28;20125;-66
2022/02/04 17:53:27;;;;;;;36.75;15.50;;;;;;;;;;5015605;28;20411;-66
2022/02/04 17:55:58;;;;;;;37.20;15.88;;;;;;;;;;5013705;28;20112;-65
2022/02/04 17:58:29;;;;;;;37.85;15.43;;;;;;;;;;5014732;28;20110;-66
2022/02/04 18:08:33;;;;;;;44.72;15.05;;;;;;;;;;5014352;28;20518;-66
2022/02/04 18:11:01;;;;;;;35.17;15.68;;;;;;;;;;5014592;28;20040;-66
2022/02/04 18:13:27;;;;;;;39.35;16.05;;;;;;;;;;5013374;28;20478;-66
2022/02/04 18:15:55;;;;;;;46.75;16.80;;;;;;;;;;5014494;28;20033;-66
2022/02/04 18:18:27;;;;;;;41.75;16.73;;;;;;;;;;5013247;28;20026;-66
2022/02/04 18:20:53;;;;;;;39.85;16.63;;;;;;;;;;5013270;28;20033;-66
2022/02/04 18:23:20;;;;;;;41.72;17.42;;;;;;;;;;5014425;28;20076;-65
2022/02/04 18:25:50;;;;;;;45.85;19.60;;;;;;;;;;5013168;28;20060;-66
2022/02/04 18:28:16;;;;;;;52.72;18.50;;;;;;;;;;5013111;28;20467;-66
2022/02/04 18:30:43;;;;;;;35.33;16.10;;;;;;;;;;5012992;28;20026;-66
2022/02/04 18:33:10;;;;;;;58.00;17.30;;;;;;;;;;5014309;28;20045;-66
2022/02/04 18:35:38;;;;;;;43.05;17.63;;;;;;;;;;5014300;28;20022;-66
2022/02/04 18:38:32;;;;;;;48.35;17.73;;;;;;;;;;5014207;28;20025;-67
2022/02/04 18:43:35;;;;;;;48.63;17.08;;;;;;;;;;5014611;28;20030;-66
2022/02/04 18:48:50;;;;;;;52.42;20.02;;;;;;;;;;5014131;28;20414;-67
2022/02/04 18:59:30;;;;;;;56.10;20.17;;;;;;;;;;5014021;28;20085;-67
2022/02/04 19:01:57;;;;;;;74.50;22.45;;;;;;;;;;5012175;28;20026;-67
2022/02/04 19:04:31;;;;;;;56.80;20.95;;;;;;;;;;5012632;28;20077;-68
2022/02/04 19:07:03;;;;;;;59.42;21.52;;;;;;;;;;5012537;28;20040;-67
2022/02/04 19:09:30;;;;;;;72.78;23.42;;;;;;;;;;5012580;28;20022;-66
2022/02/04 19:12:03;;;;;;;55.72;22.02;;;;;;;;;;5012382;28;20042;-66
2022/02/04 19:17:23;;;;;;;59.72;23.85;;;;;;;;;;5013724;28;20032;-67
2022/02/04 19:20:09;;;;;;;51.95;21.13;;;;;;;;;;5014116;28;20477;-66
2022/02/04 19:22:38;;;;;;;59.13;22.30;;;;;;;;;;5012416;28;20026;-66
2022/02/04 19:25:08;;;;;;;49.92;20.17;;;;;;;;;;5012317;28;20034;-66
2022/02/04 19:27:34;;;;;;;57.15;21.95;;;;;;;;;;5012235;28;20026;-67
2022/02/04 19:30:02;;;;;;;49.67;19.67;;;;;;;;;;5012307;28;20038;-66
2022/02/04 19:32:28;;;;;;;44.50;20.23;;;;;;;;;;5012174;28;20034;-66
2022/02/04 19:34:55;;;;;;;45.70;20.00;;;;;;;;;;5013568;28;20028;-66
2022/02/04 19:37:23;;;;;;;60.53;21.63;;;;;;;;;;5013748;28;20518;-67
2022/02/04 19:39:50;;;;;;;57.55;23.60;;;;;;;;;;5012246;28;20537;-66
2022/02/04 19:42:24;;;;;;;68.20;22.13;;;;;;;;;;5012181;28;20386;-66
2022/02/04 19:45:02;;;;;;;55.20;22.40;;;;;;;;;;5012270;28;20053;-66
2022/02/04 19:48:21;;;;;;;50.90;20.60;;;;;;;;;;5012189;28;20034;-65
2022/02/04 19:50:39;;;;;;;54.38;20.60;;;;;;;;;;5010212;28;20411;-66
2022/02/04 19:55:54;;;;;;;47.70;20.48;;;;;;;;;;5014206;28;20030;-66
2022/02/04 20:25:37;;;;;;;51.47;20.90;;;;;;;;;;5013357;28;20065;-66
2022/02/04 20:28:09;;;;;;;55.38;20.60;;;;;;;;;;5011753;28;20431;-66
2022/02/04 20:30:36;;;;;;;52.00;21.13;;;;;;;;;;5012963;28;20565;-66
2022/02/04 20:33:03;;;;;;;56.50;21.30;;;;;;;;;;5016343;28;20084;-66
2022/02/04 20:35:29;;;;;;;47.35;21.30;;;;;;;;;;5015226;28;20033;-66
2022/02/04 20:37:55;;;;;;;64.00;25.92;;;;;;;;;;5016972;28;20022;-66
2022/02/04 20:42:51;;;;;;;76.03;24.15;;;;;;;;;;5016345;28;20030;-66
2022/02/04 20:45:17;;;;;;;63.22;24.17;;;;;;;;;;5015042;28;20022;-66
2022/02/04 20:47:46;;;;;;;59.17;24.48;;;;;;;;;;5016200;28;20475;-66
2022/02/04 20:50:12;;;;;;;62.50;24.63;;;;;;;;;;5014965;28;20475;-66
2022/02/04 20:52:39;;;;;;;52.92;22.25;;;;;;;;;;5016620;28;20034;-65
2022/02/04 20:55:07;;;;;;;55.55;21.75;;;;;;;;;;5016356;28;20030;-66
2022/02/04 20:57:35;;;;;;;58.38;22.92;;;;;;;;;;5016014;28;20022;-66
2022/02/04 21:00:02;;;;;;;45.28;20.88;;;;;;;;;;5015582;28;20113;-66
2022/02/04 21:02:28;;;;;;;56.35;21.50;;;;;;;;;;5016213;28;20045;-66
2022/02/04 21:04:54;;;;;;;53.30;20.67;;;;;;;;;;5015921;28;20121;-66
2022/02/04 21:07:30;;;;;;;55.58;23.13;;;;;;;;;;5014665;28;20030;-66
2022/02/04 21:15:26;;;;;;;45.75;17.35;;;;;;;;;;5016038;28;20087;-66
2022/02/04 21:17:52;;;;;;;42.78;17.98;;;;;;;;;;5014382;28;20018;-65
2022/02/04 21:20:19;;;;;;;39.50;16.50;;;;;;;;;;5014390;28;20531;-66
2022/02/04 21:22:45;;;;;;;36.90;18.27;;;;;;;;;;5014349;28;20022;-66
2022/02/04 21:25:12;;;;;;;39.65;17.25;;;;;;;;;;5015523;28;20121;-66
2022/02/04 21:27:41;;;;;;;47.67;17.77;;;;;;;;;;5014413;28;20105;-66
2022/02/04 21:30:08;;;;;;;34.55;16.00;;;;;;;;;;5014177;28;20037;-65
2022/02/04 21:32:42;;;;;;;39.83;17.58;;;;;;;;;;5014086;28;20121;-66
2022/02/04 21:37:53;;;;;;;34.42;15.45;;;;;;;;;;5015641;28;20528;-66
2022/02/04 21:40:20;;;;;;;48.83;17.20;;;;;;;;;;5015295;28;20038;-65
2022/02/04 21:42:48;;;;;;;49.15;17.88;;;;;;;;;;5012883;28;20430;-65
2022/02/04 21:45:14;;;;;;;45.95;18.10;;;;;;;;;;5014742;28;20073;-65
2022/02/04 21:47:51;;;;;;;42.42;17.60;;;;;;;;;;5013881;28;20034;-65
2022/02/04 21:50:17;;;;;;;38.22;16.05;;;;;;;;;;5015614;28;20033;-65
2022/02/04 21:52:44;;;;;;;43.85;17.60;;;;;;;;;;5013789;28;20095;-65